Time;durP1;ratioP1;P1;durP2;ratioP2;P2;SDS_P1;SDS_P2;PMS_P1;PMS_P2;Temp;Humidity;BMP_temperature;BMP_pressure;BME280_temperature;BME280_humidity;BME280_pressure;Samples;Min_cycle;Max_cycle;Signal;HPM_P1;HPM_P2
2022/10/11 00:00:46;;;;;;;13.22;4.05;;;;;;;2.64;100.00;100939.90;1716155;82;21044;-64
2022/10/11 00:03:15;;;;;;;9.48;2.75;;;;;;;2.62;100.00;100940.75;1715799;82;20999;-66
2022/10/11 00:05:43;;;;;;;;;;;;;;;2.61;100.00;100938.59;1719678;82;21164;-65
2022/10/11 00:08:12;;;;;;;4.40;2.12;;;;;;;2.59;100.00;100937.70;1713881;82;20171;-65
2022/10/11 00:10:40;;;;;;;7.10;2.35;;;;;;;2.47;100.00;100933.27;1717694;82;21823;-67
2022/10/11 00:13:06;;;;;;;5.80;1.90;;;;;;;2.43;100.00;100933.22;1706873;82;21060;-65
2022/10/11 00:15:33;;;;;;;3.67;2.22;;;;;;;2.39;100.00;100933.61;1694902;84;21078;-65
2022/10/11 00:17:59;;;;;;;7.83;1.82;;;;;;;2.37;100.00;100931.86;1686740;84;21610;-66
2022/10/11 00:20:26;;;;;;;7.90;1.90;;;;;;;2.34;100.00;100929.23;1691832;83;21607;-65
2022/10/11 00:22:52;;;;;;;5.15;2.00;;;;;;;2.30;100.00;100929.63;1681155;84;21683;-65
2022/10/11 00:25:19;;;;;;;4.85;2.02;;;;;;;2.28;100.00;100934.83;1693472;83;21678;-64
2022/10/11 00:27:47;;;;;;;8.95;1.90;;;;;;;2.28;100.00;100928.33;1687846;84;21224;-64
2022/10/11 00:30:13;;;;;;;6.33;2.40;;;;;;;2.24;100.00;100926.55;1681867;84;21100;-66
2022/10/11 00:32:40;;;;;;;16.07;2.50;;;;;;;2.18;100.00;100918.69;1685076;83;21549;-65
2022/10/11 00:35:08;;;;;;;8.35;2.00;;;;;;;2.19;100.00;100923.05;1696361;83;22148;-66
2022/10/11 00:37:36;;;;;;;3.90;2.10;;;;;;;2.25;100.00;100919.19;1692071;83;21148;-64
2022/10/11 00:40:11;;;;;;;5.25;2.55;;;;;;;2.23;100.00;100911.83;1692398;84;21057;-66
2022/10/11 00:42:38;;;;;;;2.55;1.82;;;;;;;2.15;100.00;100913.47;1684474;84;21117;-66
2022/10/11 00:45:30;;;;;;;7.65;1.80;;;;;;;2.12;100.00;100909.55;1690018;84;21053;-64
2022/10/11 00:48:04;;;;;;;3.45;1.98;;;;;;;2.07;100.00;100902.11;1680995;84;22076;-65
2022/10/11 00:50:33;;;;;;;5.78;2.00;;;;;;;2.05;100.00;100906.45;1688111;83;21100;-65
2022/10/11 00:53:02;;;;;;;6.90;2.27;;;;;;;2.04;100.00;100907.29;1687344;83;21632;-64
2022/10/11 00:55:33;;;;;;;6.42;2.10;;;;;;;2.01;100.00;100901.64;1685888;84;21607;-65
2022/10/11 00:58:00;;;;;;;4.08;2.00;;;;;;;1.98;100.00;100905.52;1690024;83;21588;-65
2022/10/11 01:00:26;;;;;;;2.92;1.90;;;;;;;2.00;100.00;100906.80;1682151;84;21114;-66
2022/10/11 01:02:53;;;;;;;3.67;2.17;;;;;;;1.98;100.00;100904.62;1690243;84;21535;-64
2022/10/11 01:05:20;;;;;;;3.90;2.00;;;;;;;1.94;100.00;100905.47;1686656;84;21627;-64
2022/10/11 01:07:48;;;;;;;12.80;2.20;;;;;;;1.94;100.00;100910.66;1687389;84;21112;-65
2022/10/11 01:10:14;;;;;;;6.92;2.00;;;;;;;1.95;100.00;100909.79;1691867;83;21080;-63
2022/10/11 01:13:14;;;;;;;7.40;2.20;;;;;;;1.98;100.00;100903.31;1690950;84;21091;-64
2022/10/11 01:15:49;;;;;;;6.97;2.00;;;;;;;1.96;100.00;100903.76;1679755;84;21103;-65
2022/10/11 01:18:26;;;;;;;7.72;2.15;;;;;;;1.94;100.00;100900.27;1681636;84;21089;-65
2022/10/11 01:21:18;;;;;;;4.95;1.92;;;;;;;1.94;100.00;100908.06;1676508;83;22116;-66
2022/10/11 01:24:22;;;;;;;11.28;2.15;;;;;;;1.87;100.00;100909.28;1686939;84;21048;-65
2022/10/11 01:27:03;;;;;;;9.13;2.40;;;;;;;1.89;100.00;100911.91;1696651;84;21116;-66
2022/10/11 01:30:19;;;;;;;6.33;1.90;;;;;;;1.88;100.00;100917.50;1687519;84;21095;-65
2022/10/11 01:32:57;;;;;;;4.45;2.17;;;;;;;1.87;100.00;100908.42;1692302;83;21094;-66
2022/10/11 01:35:35;;;;;;;7.15;2.77;;;;;;;1.85;100.00;100912.29;1694465;84;21010;-65
2022/10/11 01:38:14;;;;;;;7.70;2.42;;;;;;;1.86;100.00;100919.64;1690678;84;21136;-65
2022/10/11 01:40:49;;;;;;;4.20;2.00;;;;;;;1.82;100.00;100917.89;1689289;84;21173;-64
2022/10/11 01:43:16;;;;;;;5.28;2.10;;;;;;;1.78;100.00;100910.48;1695273;84;21633;-66
2022/10/11 01:45:42;;;;;;;8.88;2.33;;;;;;;1.71;100.00;100911.27;1731133;81;21060;-66
2022/10/11 01:48:11;;;;;;;3.75;2.22;;;;;;;1.64;100.00;100901.67;1742265;81;21041;-66
2022/10/11 01:50:50;;;;;;;2.62;1.75;;;;;;;1.65;100.00;100904.27;1738695;81;21085;-64
2022/10/11 01:53:56;;;;;;;2.30;1.77;;;;;;;1.62;100.00;100907.27;1742149;81;21159;-64
2022/10/11 01:56:47;;;;;;;11.68;2.75;;;;;;;1.57;100.00;100905.05;1742831;81;21081;-66
2022/10/11 01:59:43;;;;;;;13.60;2.50;;;;;;;1.59;100.00;100905.94;1741634;81;21595;-65
2022/10/11 02:02:31;;;;;;;4.30;1.65;;;;;;;1.52;100.00;100914.48;1697849;81;21155;-65
2022/10/11 02:05:21;;;;;;;3.90;1.85;;;;;;;1.52;100.00;100914.48;1690887;84;22208;-65
2022/10/11 02:08:22;;;;;;;7.25;2.62;;;;;;;1.54;100.00;100915.37;1692486;84;21157;-65
2022/10/11 02:11:00;;;;;;;8.28;2.33;;;;;;;1.50;100.00;100917.52;1690742;83;26726;-64
2022/10/11 02:13:40;;;;;;;5.25;2.22;;;;;;;1.46;100.00;100916.59;1689453;83;21163;-64
2022/10/11 02:16:15;;;;;;;4.70;2.12;;;;;;;1.42;100.00;100918.25;1688785;83;21084;-67
2022/10/11 02:18:49;;;;;;;4.17;1.82;;;;;;;1.44;100.00;100921.75;1686695;84;22727;-65
2022/10/11 02:21:18;;;;;;;2.92;1.90;;;;;;;1.43;100.00;100916.13;1693377;83;21128;-65
2022/10/11 02:23:49;;;;;;;2.80;1.80;;;;;;;1.45;100.00;100923.51;1688741;84;21040;-65
2022/10/11 02:26:16;;;;;;;9.95;2.10;;;;;;;1.42;100.00;100924.75;1689887;83;21065;-66
2022/10/11 02:28:43;;;;;;;6.47;2.17;;;;;;;1.39;100.00;100928.61;1685122;83;21690;-64
2022/10/11 02:31:10;;;;;;;3.77;2.42;;;;;;;1.33;100.00;100928.95;1686419;84;21124;-64
2022/10/11 02:33:42;;;;;;;5.08;2.08;;;;;;;1.32;100.00;100929.38;1687620;84;21170;-65
2022/10/11 02:36:18;;;;;;;6.20;2.22;;;;;;;1.34;100.00;100927.69;1687328;84;21049;-66
2022/10/11 02:38:51;;;;;;;7.90;2.40;;;;;;;1.33;100.00;100929.81;1693279;84;21544;-64
2022/10/11 02:41:32;;;;;;;9.68;2.60;;;;;;;1.32;100.00;100932.41;1686581;84;22129;-64
2022/10/11 02:44:07;;;;;;;;;;;;;;;1.25;100.00;100926.27;1703339;82;21129;-66
2022/10/11 02:46:33;;;;;;;10.55;2.80;;;;;;;1.16;100.00;100932.62;1734373;81;21119;-64
2022/10/11 02:48:59;;;;;;;4.25;2.40;;;;;;;1.12;100.00;100932.13;1732894;82;21160;-63
2022/10/11 02:51:29;;;;;;;5.33;2.70;;;;;;;1.09;100.00;100931.66;1736331;82;21615;-66
2022/10/11 02:53:56;;;;;;;5.30;2.50;;;;;;;1.09;100.00;100931.66;1714904;81;21089;-65
2022/10/11 02:56:23;;;;;;;5.53;2.55;;;;;;;1.11;100.00;100931.26;1743656;81;21517;-63
2022/10/11 02:58:50;;;;;;;6.35;3.20;;;;;;;0.99;100.00;100936.24;1742527;81;21187;-66
2022/10/11 03:01:17;;;;;;;6.37;2.58;;;;;;;0.99;100.00;100936.24;1714380;81;21029;-65
2022/10/11 03:03:44;;;;;;;5.10;2.92;;;;;;;0.95;100.00;100943.13;1689270;84;21156;-64
2022/10/11 03:06:11;;;;;;;4.08;2.60;;;;;;;0.98;100.00;100931.92;1691878;83;21130;-65
2022/10/11 03:08:37;;;;;;;24.43;5.00;;;;;;;0.98;100.00;100934.08;1689472;83;21041;-66
2022/10/11 03:11:04;;;;;;;14.95;3.40;;;;;;;0.98;100.00;100935.37;1681389;84;22252;-65
2022/10/11 03:13:31;;;;;;;7.37;3.75;;;;;;;0.96;100.00;100933.19;1690872;84;21083;-65
2022/10/11 03:15:59;;;;;;;10.03;2.95;;;;;;;0.98;100.00;100935.81;1680087;84;21692;-63
2022/10/11 03:18:26;;;;;;;10.35;3.30;;;;;;;0.96;100.00;100933.61;1690656;83;21666;-65
2022/10/11 03:20:54;;;;;;;5.22;2.62;;;;;;;0.97;100.00;100928.89;1687670;84;21072;-65
2022/10/11 03:23:21;;;;;;;7.58;2.77;;;;;;;0.96;100.00;100931.89;1690040;83;21112;-66
2022/10/11 03:25:47;;;;;;;3.98;2.33;;;;;;;0.91;100.00;100925.77;1695505;83;21077;-66
2022/10/11 03:28:14;;;;;;;10.05;2.95;;;;;;;0.91;100.00;100925.77;1697605;83;21105;-65
2022/10/11 03:30:41;;;;;;;8.53;2.60;;;;;;;0.85;100.00;100924.37;1687172;84;21050;-64
2022/10/11 03:33:08;;;;;;;5.45;2.22;;;;;;;0.85;100.00;100924.37;1685740;83;21103;-66
2022/10/11 03:35:35;;;;;;;7.83;2.77;;;;;;;0.80;100.00;100922.13;1688161;84;21167;-65
2022/10/11 03:38:02;;;;;;;7.78;2.45;;;;;;;0.82;100.00;100921.30;1686374;84;21323;-66
2022/10/11 03:40:28;;;;;;;5.92;2.20;;;;;;;0.83;100.00;100924.80;1690804;84;21009;-66
2022/10/11 03:42:55;;;;;;;5.65;2.47;;;;;;;0.80;100.00;100933.37;1692917;84;21065;-66
2022/10/11 03:45:22;;;;;;;4.12;2.58;;;;;;;0.77;100.00;100924.69;1722553;82;21179;-66
2022/10/11 03:47:48;;;;;;;6.30;2.58;;;;;;;0.75;100.00;100919.90;1745111;81;21587;-66
2022/10/11 03:50:15;;;;;;;3.92;2.05;;;;;;;0.74;100.00;100928.55;1739623;81;21099;-65
2022/10/11 03:52:42;;;;;;;7.92;2.60;;;;;;;0.72;100.00;100926.34;1748122;81;21055;-65
2022/10/11 03:55:08;;;;;;;10.78;2.60;;;;;;;0.68;100.00;100927.14;1737305;81;21045;-64
2022/10/11 03:57:35;;;;;;;6.12;2.70;;;;;;;0.73;100.00;100925.48;1742515;81;21033;-64
2022/10/11 04:00:02;;;;;;;8.30;3.10;;;;;;;0.71;100.00;100924.58;1741183;81;21115;-65
2022/10/11 04:02:30;;;;;;;4.47;2.37;;;;;;;0.71;100.00;100925.45;1735430;81;21104;-64
2022/10/11 04:04:57;;;;;;;10.88;2.70;;;;;;;0.71;100.00;100931.06;1744230;81;21072;-65
2022/10/11 04:07:24;;;;;;;5.45;2.70;;;;;;;0.69;100.00;100927.57;1740249;81;21124;-65
2022/10/11 04:09:51;;;;;;;5.90;2.45;;;;;;;0.67;100.00;100930.16;1740135;81;21041;-66
2022/10/11 04:12:18;;;;;;;6.47;2.50;;;;;;;0.66;100.00;100934.88;1742141;81;21787;-66
2022/10/11 04:14:45;;;;;;;4.83;2.58;;;;;;;0.65;100.00;100929.69;1740017;81;21097;-66
2022/10/11 04:17:11;;;;;;;5.25;3.00;;;;;;;0.66;100.00;100930.98;1744033;81;21206;-65
2022/10/11 04:19:38;;;;;;;18.02;3.92;;;;;;;0.71;100.00;100934.95;1742303;81;21135;-66
2022/10/11 04:22:05;;;;;;;9.45;3.87;;;;;;;0.70;100.00;100930.63;1742468;81;21687;-66
2022/10/11 04:24:32;;;;;;;14.13;4.40;;;;;;;0.68;100.00;100939.67;1744168;81;21837;-64
2022/10/11 04:26:58;;;;;;;6.55;3.37;;;;;;;0.68;100.00;100939.67;1740858;81;21097;-65
2022/10/11 04:29:26;;;;;;;9.48;4.03;;;;;;;0.72;100.00;100934.12;1741738;81;21132;-65
2022/10/11 04:31:52;;;;;;;15.70;4.55;;;;;;;0.75;100.00;100934.16;1740406;81;21089;-66
2022/10/11 04:34:19;;;;;;;11.90;3.60;;;;;;;0.75;100.00;100938.05;1745277;81;21032;-63
2022/10/11 04:36:45;;;;;;;7.83;2.80;;;;;;;0.76;100.00;100935.89;1743671;81;21177;-66
2022/10/11 04:39:12;;;;;;;11.35;4.53;;;;;;;0.77;100.00;100932.47;1738916;81;21077;-66
2022/10/11 04:41:39;;;;;;;5.37;2.92;;;;;;;0.72;100.00;100939.31;1743917;81;21751;-66
2022/10/11 04:44:05;;;;;;;6.10;3.08;;;;;;;0.75;100.00;100939.34;1741857;81;21081;-66
2022/10/11 04:46:32;;;;;;;9.88;2.70;;;;;;;0.74;100.00;100945.39;1714284;82;21008;-66
2022/10/11 04:48:59;;;;;;;10.03;3.60;;;;;;;0.77;100.00;100946.73;1718459;82;21194;-66
2022/10/11 04:51:26;;;;;;;16.07;4.65;;;;;;;0.81;100.00;100945.94;1709641;83;21168;-66
2022/10/11 04:53:52;;;;;;;10.50;5.28;;;;;;;0.85;100.00;100947.70;1721073;82;21097;-66
2022/10/11 04:56:19;;;;;;;14.45;6.12;;;;;;;0.89;100.00;100944.31;1722814;82;21089;-65
2022/10/11 04:58:52;;;;;;;13.62;5.83;;;;;;;0.91;100.00;100945.22;1721948;82;21259;-65
2022/10/11 05:01:17;;;;;;;10.63;4.70;;;;;;;0.91;100.00;100946.52;1710889;82;21021;-65
2022/10/11 05:03:44;;;;;;;11.38;4.25;;;;;;;0.92;100.00;100946.98;1719396;82;21157;-66
2022/10/11 05:06:13;;;;;;;12.07;4.45;;;;;;;0.98;100.00;100952.23;1727178;82;21116;-65
2022/10/11 05:08:42;;;;;;;12.43;3.27;;;;;;;1.10;100.00;100959.77;1721717;82;21151;-65
2022/10/11 05:11:12;;;;;;;6.62;3.77;;;;;;;1.10;100.00;100959.77;1714203;82;21057;-66
2022/10/11 05:13:40;;;;;;;6.67;3.58;;;;;;;1.24;100.00;100955.64;1713561;82;21143;-66
2022/10/11 05:16:07;;;;;;;7.08;3.92;;;;;;;1.81;100.00;100949.46;1718256;82;21056;-67
2022/10/11 05:18:33;;;;;;;9.63;3.40;;;;;;;2.59;100.00;100943.34;1717695;82;21097;-65
2022/10/11 05:21:03;;;;;;;9.15;3.35;;;;;;;3.31;100.00;100942.53;1720575;82;21042;-67
2022/10/11 05:23:32;;;;;;;;;;;;;;;4.00;100.00;100937.61;1717183;82;21609;-66
2022/10/11 05:25:58;;;;;;;9.10;3.20;;;;;;;4.98;100.00;100932.92;1717511;82;21070;-67
2022/10/11 05:28:26;;;;;;;11.35;3.33;;;;;;;5.99;100.00;100928.70;1718172;82;21046;-67
2022/10/11 05:30:53;;;;;;;12.35;3.37;;;;;;;7.08;100.00;100924.38;1711314;82;21183;-67
2022/10/11 05:33:19;;;;;;;7.03;3.20;;;;;;;8.19;100.00;100918.22;1719050;82;21076;-68
2022/10/11 05:35:46;;;;;;;9.50;3.37;;;;;;;9.28;100.00;100927.38;1723259;82;21097;-67
2022/10/11 05:38:16;;;;;;;8.95;2.85;;;;;;;10.21;100.00;100917.95;1717168;82;21593;-67
2022/10/11 05:40:43;;;;;;;7.03;3.22;;;;;;;11.16;100.00;100921.80;1725239;82;21517;-67
2022/10/11 05:43:09;;;;;;;4.67;2.60;;;;;;;11.90;100.00;100920.64;1727096;82;21003;-67
2022/10/11 05:45:41;;;;;;;5.37;2.50;;;;;;;12.62;100.00;100923.65;1676649;82;21536;-67
2022/10/11 05:48:08;;;;;;;4.72;2.85;;;;;;;13.37;100.00;100925.54;1668638;85;21620;-68
2022/10/11 05:50:35;;;;;;;4.90;3.08;;;;;;;14.01;100.00;100917.84;1672575;84;21388;-66
2022/10/11 05:53:03;;;;;;;4.35;2.58;;;;;;;14.78;100.00;100917.89;1671230;85;21158;-68
2022/10/11 05:55:38;;;;;;;6.12;2.92;;;;;;;15.36;94.19;100921.14;1669703;84;21140;-68
2022/10/11 05:58:05;;;;;;;4.35;2.87;;;;;;;15.78;90.27;100914.41;1671464;84;21041;-67
2022/10/11 06:00:33;;;;;;;4.90;2.67;;;;;;;16.18;87.68;100913.85;1670700;85;22278;-67
2022/10/11 06:03:00;;;;;;;4.62;2.77;;;;;;;16.65;69.59;100910.66;1648927;85;21180;-68
2022/10/11 06:05:26;;;;;;;3.30;2.37;;;;;;;17.25;65.81;100915.61;1660666;84;21121;-68
2022/10/11 06:07:53;;;;;;;8.65;3.20;;;;;;;17.60;62.96;100916.89;1674502;85;21550;-67
2022/10/11 06:10:20;;;;;;;5.25;2.60;;;;;;;17.93;60.81;100916.02;1666437;85;21102;-69
2022/10/11 06:12:47;;;;;;;5.58;2.72;;;;;;;18.31;59.28;100911.67;1658151;85;21200;-67
2022/10/11 06:15:13;;;;;;;4.75;3.17;;;;;;;18.72;57.29;100911.95;1674536;84;21201;-68
2022/10/11 06:17:42;;;;;;;8.00;2.55;;;;;;;18.99;54.66;100905.97;1672118;84;21026;-66
2022/10/11 06:20:11;;;;;;;8.13;3.45;;;;;;;19.19;53.58;100902.96;1672814;84;21045;-67
2022/10/11 06:22:38;;;;;;;7.75;2.90;;;;;;;19.44;52.34;100909.45;1666875;85;21106;-68
2022/10/11 06:25:06;;;;;;;5.17;2.98;;;;;;;19.62;51.40;100902.11;1649976;85;21244;-66
2022/10/11 06:27:32;;;;;;;4.85;2.33;;;;;;;19.84;50.29;100903.84;1676937;84;21221;-66
2022/10/11 06:29:59;;;;;;;4.92;2.80;;;;;;;20.06;48.73;100898.45;1671273;84;21472;-68
2022/10/11 06:32:26;;;;;;;4.58;2.62;;;;;;;20.45;48.28;100899.48;1663382;85;21292;-67
2022/10/11 06:34:52;;;;;;;5.62;2.35;;;;;;;20.88;46.51;100904.67;1675259;84;21104;-68
2022/10/11 06:37:19;;;;;;;4.45;2.60;;;;;;;21.30;44.71;100900.88;1670499;84;21143;-68
2022/10/11 06:39:50;;;;;;;5.10;2.40;;;;;;;21.70;43.99;100898.58;1678314;84;21190;-67
2022/10/11 06:42:16;;;;;;;12.55;4.90;;;;;;;21.85;42.58;100899.28;1672494;84;21041;-68
2022/10/11 06:44:43;;;;;;;66.17;16.42;;;;;;;21.87;42.33;100898.69;1688270;82;21113;-68
2022/10/11 06:47:10;;;;;;;83.70;20.10;;;;;;;21.89;41.52;100896.27;1720946;82;21096;-68
2022/10/11 06:49:37;;;;;;;23.80;8.05;;;;;;;22.06;41.86;100904.41;1713364;82;21033;-69
2022/10/11 06:52:04;;;;;;;6.12;2.40;;;;;;;22.32;40.82;100901.70;1712879;82;21302;-69
2022/10/11 06:54:30;;;;;;;4.28;2.17;;;;;;;22.44;40.18;100905.30;1716822;82;21090;-68
2022/10/11 06:56:57;;;;;;;3.52;2.40;;;;;;;22.37;39.72;100900.38;1710561;82;21096;-68
2022/10/11 06:59:23;;;;;;;6.03;2.08;;;;;;;22.36;40.24;100904.05;1718916;82;21081;-68
2022/10/11 07:01:49;;;;;;;4.72;2.42;;;;;;;22.73;39.46;100909.33;1716802;82;21665;-67
2022/10/11 07:04:16;;;;;;;4.53;2.00;;;;;;;22.96;38.72;100904.89;1713192;82;21529;-68
2022/10/11 07:06:43;;;;;;;4.92;2.17;;;;;;;23.14;38.20;100903.97;1715256;82;21198;-69
2022/10/11 07:09:10;;;;;;;4.62;2.90;;;;;;;23.37;37.72;100902.66;1712356;82;21153;-69
2022/10/11 07:11:37;;;;;;;9.73;2.52;;;;;;;23.58;37.37;100895.61;1713139;82;21084;-67
2022/10/11 07:14:06;;;;;;;3.75;2.40;;;;;;;23.85;36.88;100894.39;1714015;82;21049;-67
2022/10/11 07:16:35;;;;;;;6.05;2.47;;;;;;;24.14;35.80;100899.25;1716740;82;21232;-68
2022/10/11 07:19:03;;;;;;;3.17;1.92;;;;;;;24.42;34.91;100894.63;1715143;82;21045;-68
2022/10/11 07:21:31;;;;;;;3.92;1.75;;;;;;;24.47;34.31;100897.81;1718233;82;22236;-69
2022/10/11 07:23:58;;;;;;;4.35;1.70;;;;;;;24.52;33.91;100895.23;1715969;82;21056;-69
2022/10/11 07:26:24;;;;;;;4.87;1.57;;;;;;;24.49;33.17;100890.97;1690446;83;21028;-69
2022/10/11 07:28:51;;;;;;;3.67;1.12;;;;;;;24.49;33.17;100890.97;1708810;83;21080;-68
2022/10/11 07:31:20;;;;;;;1.77;1.30;;;;;;;24.42;33.01;100887.89;1709316;83;21175;-68
2022/10/11 07:33:47;;;;;;;1.80;1.00;;;;;;;24.48;32.88;100890.12;1711547;82;21610;-69
2022/10/11 07:36:13;;;;;;;3.62;1.90;;;;;;;25.09;32.02;100888.58;1695453;84;21502;-69
2022/10/11 07:38:43;;;;;;;2.58;1.50;;;;;;;25.09;32.02;100888.58;1691512;83;21098;-68
2022/10/11 07:41:10;;;;;;;8.70;3.10;;;;;;;25.30;31.68;100881.34;1686887;84;21119;-68
2022/10/11 07:43:37;;;;;;;18.20;5.35;;;;;;;25.54;31.10;100877.51;1698170;84;21072;-69
2022/10/11 07:46:04;;;;;;;3.67;1.82;;;;;;;25.82;30.82;100864.26;1693769;84;21163;-67
2022/10/11 07:48:33;;;;;;;2.75;1.50;;;;;;;26.05;30.35;100868.96;1691555;84;21667;-66
2022/10/11 07:51:14;;;;;;;2.72;1.10;;;;;;;26.23;29.30;100865.09;1690044;84;21529;-68
2022/10/11 07:53:50;;;;;;;5.62;1.40;;;;;;;26.33;29.39;100857.84;1689445;84;21217;-68
2022/10/11 07:56:27;;;;;;;1.30;1.05;;;;;;;26.28;28.91;100857.41;1696778;84;21148;-69
2022/10/11 07:58:56;;;;;;;2.58;1.25;;;;;;;25.99;28.38;100852.81;1686963;84;21032;-68
2022/10/11 08:01:23;;;;;;;2.05;1.30;;;;;;;25.87;29.37;100857.98;1690352;84;21184;-68
2022/10/11 08:03:49;;;;;;;3.72;1.37;;;;;;;26.29;29.19;100861.80;1698579;84;21133;-68
2022/10/11 08:06:19;;;;;;;1.85;0.90;;;;;;;26.51;28.14;100860.69;1694465;84;21533;-67
2022/10/11 08:08:46;;;;;;;2.00;1.02;;;;;;;26.50;26.71;100859.84;1683822;83;21044;-68
2022/10/11 08:11:29;;;;;;;3.37;1.00;;;;;;;26.26;26.85;100862.09;1683745;84;21100;-69
2022/10/11 08:13:57;;;;;;;2.08;0.80;;;;;;;25.77;27.53;100857.05;1677596;84;21112;-69
2022/10/11 08:16:24;;;;;;;2.85;0.88;;;;;;;25.89;27.22;100860.89;1685855;84;21569;-68
2022/10/11 08:18:53;;;;;;;2.35;0.98;;;;;;;25.82;26.77;100852.12;1682148;84;21183;-68
2022/10/11 08:21:19;;;;;;;1.25;0.88;;;;;;;25.65;27.35;100851.78;1687693;84;21128;-67
2022/10/11 08:23:46;;;;;;;3.25;0.90;;;;;;;25.81;27.22;100849.05;1690576;84;21082;-69
2022/10/11 08:28:41;;;;;;;2.33;0.90;;;;;;;25.97;25.86;100843.16;1796619;79;22446;-68
2022/10/11 08:31:11;;;;;;;0.82;0.50;;;;;;;25.68;26.20;100842.06;1756548;80;20988;-67
2022/10/11 08:33:37;;;;;;;8.00;2.43;;;;;;;25.26;26.19;100850.75;1695174;83;21920;-68
2022/10/11 08:36:05;;;;;;;1.12;0.55;;;;;;;25.13;26.92;100845.56;1722788;83;21552;-68
2022/10/11 08:38:33;;;;;;;6.35;1.50;;;;;;;25.42;26.15;100846.21;1722833;83;21061;-68
2022/10/11 08:41:00;;;;;;;26.70;6.17;;;;;;;25.81;26.59;100840.95;1723058;83;21658;-68
2022/10/11 08:43:44;;;;;;;110.05;23.50;;;;;;;26.02;26.24;100833.66;1694260;83;21639;-68
2022/10/11 08:46:10;;;;;;;35.50;9.20;;;;;;;26.41;26.06;100835.52;1712239;83;21877;-68
2022/10/11 08:48:46;;;;;;;3.52;1.12;;;;;;;26.97;25.53;100834.78;1712389;83;20997;-68
2022/10/11 08:51:24;;;;;;;9.73;2.55;;;;;;;27.33;24.94;100830.43;1712192;83;21570;-68
2022/10/11 08:54:17;;;;;;;4.72;0.80;;;;;;;27.60;24.54;100831.42;1712005;83;21601;-69
2022/10/11 08:56:44;;;;;;;4.05;0.60;;;;;;;27.56;24.35;100826.83;1712429;83;21521;-69
2022/10/11 08:59:32;;;;;;;1.10;0.60;;;;;;;27.65;23.65;100826.41;1712634;83;21812;-68
2022/10/11 09:02:39;;;;;;;2.15;0.80;;;;;;;27.56;23.86;100821.90;1712405;83;21037;-68
2022/10/11 09:05:06;;;;;;;6.58;1.22;;;;;;;27.40;24.02;100823.42;1712552;83;21037;-67
2022/10/11 09:07:58;;;;;;;2.45;0.70;;;;;;;27.68;24.37;100822.58;1688108;83;21048;-68
2022/10/11 09:10:33;;;;;;;1.27;0.93;;;;;;;27.79;24.05;100819.16;1661872;86;21096;-68
2022/10/11 09:13:30;;;;;;;4.30;0.75;;;;;;;27.96;23.35;100820.71;1685282;84;21529;-68
2022/10/11 09:16:07;;;;;;;4.45;0.98;;;;;;;27.76;23.92;100819.44;1691160;84;21024;-68
2022/10/11 09:19:03;;;;;;;2.02;0.60;;;;;;;27.65;23.66;100817.44;1691360;84;21108;-68
2022/10/11 09:21:41;;;;;;;4.35;1.72;;;;;;;27.32;23.45;100808.93;1691727;84;21706;-67
2022/10/11 09:24:14;;;;;;;1.90;1.00;;;;;;;26.83;23.81;100807.72;1691531;84;21112;-68
2022/10/11 09:26:59;;;;;;;5.42;1.72;;;;;;;26.65;24.53;100810.80;1690359;84;21125;-68
2022/10/11 09:29:47;;;;;;;9.75;5.28;;;;;;;26.53;24.27;100808.23;1678742;85;21113;-68
2022/10/11 09:32:19;;;;;;;2.70;1.50;;;;;;;26.28;25.44;100815.06;1678500;85;21033;-68
2022/10/11 09:34:47;;;;;;;2.00;1.00;;;;;;;26.79;24.75;100804.95;1678684;85;21548;-68
2022/10/11 09:37:32;;;;;;;2.17;1.10;;;;;;;26.79;24.75;100804.95;1678991;85;21060;-67
2022/10/11 09:40:28;;;;;;;3.60;1.35;;;;;;;27.09;24.15;100805.72;1678131;85;21778;-68
2022/10/11 09:42:55;;;;;;;4.42;1.20;;;;;;;27.70;23.78;100809.72;1678085;85;21044;-68
2022/10/11 09:45:22;;;;;;;3.12;1.25;;;;;;;27.80;24.21;100796.48;1660581;85;21104;-66
2022/10/11 09:47:52;;;;;;;2.40;1.25;;;;;;;27.80;24.21;100796.48;1671308;85;21561;-68
2022/10/11 09:50:28;;;;;;;2.55;1.10;;;;;;;27.91;23.69;100804.09;1671525;85;21554;-67
2022/10/11 09:52:58;;;;;;;4.53;1.20;;;;;;;27.52;22.97;100794.82;1666537;86;21219;-67
2022/10/11 09:55:39;;;;;;;3.65;0.90;;;;;;;27.52;22.97;100794.82;1718124;83;21016;-67
2022/10/11 09:58:23;;;;;;;2.35;1.12;;;;;;;27.59;22.87;100794.56;1718346;83;21048;-68
2022/10/11 10:01:06;;;;;;;7.75;1.62;;;;;;;27.91;22.78;100794.11;1718198;83;21654;-67
2022/10/11 10:03:41;;;;;;;2.80;1.20;;;;;;;27.97;23.09;100789.92;1718115;83;21119;-68
2022/10/11 10:06:24;;;;;;;10.78;3.80;;;;;;;28.02;22.46;100788.95;1718197;83;21153;-66
2022/10/11 10:08:51;;;;;;;3.60;1.20;;;;;;;27.91;22.13;100780.57;1716781;83;21111;-66
2022/10/11 10:11:18;;;;;;;3.72;1.10;;;;;;;26.87;23.44;100783.46;1718309;83;21607;-68
2022/10/11 10:13:50;;;;;;;1.82;1.00;;;;;;;26.87;23.44;100783.46;1718473;83;21643;-67
2022/10/11 10:16:31;;;;;;;1.60;0.90;;;;;;;26.74;23.48;100784.27;1718184;83;21128;-67
2022/10/11 10:19:08;;;;;;;3.77;1.05;;;;;;;26.91;23.19;100779.44;1718521;83;21789;-68
2022/10/11 10:21:39;;;;;;;1.40;0.90;;;;;;;26.91;23.19;100779.44;1716914;83;21580;-67
2022/10/11 10:24:20;;;;;;;2.45;1.00;;;;;;;26.49;22.90;100779.80;1717749;83;21035;-68
2022/10/11 10:27:09;;;;;;;2.72;1.00;;;;;;;26.08;23.52;100774.20;1718411;83;21096;-68
2022/10/11 10:29:36;;;;;;;4.22;1.00;;;;;;;25.92;23.86;100774.26;1718387;83;21072;-69
2022/10/11 10:32:17;;;;;;;1.25;0.93;;;;;;;25.73;24.76;100772.86;1718387;83;21238;-68
2022/10/11 10:34:47;;;;;;;;;;;;;;;25.79;24.84;100765.58;1720868;83;21073;-68
2022/10/11 10:37:31;;;;;;;3.15;0.93;;;;;;;25.95;25.00;100767.72;1632664;86;20467;-67
2022/10/11 10:40:20;;;;;;;1.65;0.93;;;;;;;26.03;23.99;100767.03;1718286;83;21009;-69
2022/10/11 10:42:48;;;;;;;2.55;1.10;;;;;;;26.11;24.95;100768.04;1718031;83;22083;-68
2022/10/11 10:45:16;;;;;;;3.47;1.12;;;;;;;25.89;25.56;100765.61;1719703;83;21166;-67
2022/10/11 10:48:17;;;;;;;1.65;0.95;;;;;;;26.01;25.38;100760.92;1720302;83;21090;-68
2022/10/11 10:51:04;;;;;;;2.47;1.00;;;;;;;26.42;24.91;100757.57;1720711;83;21079;-68
2022/10/11 10:53:43;;;;;;;5.22;0.98;;;;;;;26.74;24.90;100758.61;1719602;83;21548;-67
2022/10/11 10:56:15;;;;;;;3.00;1.37;;;;;;;26.81;24.32;100755.66;1720772;83;21027;-68
2022/10/11 10:59:15;;;;;;;2.77;0.90;;;;;;;26.75;24.15;100754.89;1720667;83;21138;-70
2022/10/11 11:01:56;;;;;;;1.57;0.57;;;;;;;26.63;24.28;100756.91;1720512;83;21059;-68
2022/10/11 11:04:30;;;;;;;1.37;0.88;;;;;;;26.70;23.89;100749.08;1708919;83;21051;-68
2022/10/11 11:07:05;;;;;;;3.25;0.78;;;;;;;26.37;23.46;100744.00;1720915;82;21031;-67
2022/10/11 11:09:52;;;;;;;1.27;0.60;;;;;;;26.07;24.26;100745.02;1720652;83;21019;-68
2022/10/11 11:12:42;;;;;;;4.97;0.75;;;;;;;25.99;23.54;100741.32;1720862;83;21091;-68
2022/10/11 11:15:17;;;;;;;9.13;0.95;;;;;;;25.73;24.37;100738.64;1720851;83;21039;-69
2022/10/11 11:17:53;;;;;;;2.30;0.50;;;;;;;25.85;24.58;100732.61;1720653;83;21059;-68
2022/10/11 11:20:58;;;;;;;1.57;0.40;;;;;;;25.72;23.79;100732.91;1720875;82;21023;-66
2022/10/11 11:23:48;;;;;;;0.85;0.50;;;;;;;25.57;23.71;100734.80;1720896;83;21050;-68
2022/10/11 11:26:50;;;;;;;1.57;0.40;;;;;;;24.91;23.67;100730.23;1720839;83;21245;-68
2022/10/11 11:29:37;;;;;;;1.50;0.47;;;;;;;24.51;24.20;100732.00;1696061;84;21045;-68
2022/10/11 11:32:30;;;;;;;5.70;0.60;;;;;;;24.42;24.46;100725.03;1663404;86;21524;-68
2022/10/11 11:35:01;;;;;;;1.77;0.70;;;;;;;24.39;23.83;100729.34;1663065;86;21100;-68
2022/10/11 11:37:39;;;;;;;0.90;0.40;;;;;;;24.02;24.21;100728.93;1663191;86;21635;-68
2022/10/11 11:40:20;;;;;;;0.72;0.45;;;;;;;23.87;23.21;100732.39;1663266;86;21156;-66
2022/10/11 11:42:56;;;;;;;0.93;0.55;;;;;;;23.66;23.37;100728.28;1663176;86;22217;-67
2022/10/11 11:45:27;;;;;;;1.02;0.47;;;;;;;23.62;23.11;100726.81;1681541;84;21033;-67
2022/10/11 11:48:08;;;;;;;0.47;0.40;;;;;;;23.32;22.60;100712.72;1691223;84;21111;-68
2022/10/11 11:50:40;;;;;;;;;;;;;;;22.66;21.22;100718.83;1694153;84;21205;-67